Archival Weather

Joint Base Andrews

Camp Springs, Maryland (KADW)

Report from: Tuesday, February 27, 2024 2:56 PM EST
Current time: Wednesday, May 29, 2024 7:25 PM EDT

Current weather – Weather history – Daily summaries
Weather forecast

Temperature14.0°C (57.2°F)
Dew point10.0°C (50.0°F)
Winds 8 kts (4.1 m/s, 9.2 mph) South (180°)
Visibility10 mi. (16.1 km)
Clouds Scattered clouds 3,700 ft. (1,128 m)
Ceiling: Broken clouds 5,000 ft. (1,524 m)
Altimeter29.80 in.Hg (1009 mB)
Precip. events Drizzle ended 7:54 PM
Relative humidity77 %
Density altitude172 ft. (53 m)
Sea-level pressure101.0 kPa (1010 mB, 29.82 in.Hg)
Remarks Fully automated report
System requires maintenance
Special weather observation
Automated weather observing station with precipitation discriminator
Flight conditions Visual Meteorological Conditions
Raw dataSPXX60 KWBC 272002 SPECI KADW 271956Z AUTO 18008KT 10SM SCT037 BKN050 14/10 A2980 RMK AO2 DZE54 SLP098 $
An error has occurred. This application may no longer respond until reloaded. Reload 🗙